Time;durP1;ratioP1;P1;durP2;ratioP2;P2;SDS_P1;SDS_P2;PMS_P1;PMS_P2;Temp;Humidity;BMP_temperature;BMP_pressure;BME280_temperature;BME280_humidity;BME280_pressure;Samples;Min_cycle;Max_cycle;Signal;HPM_P1;HPM_P2
2022/07/15 17:21:10;;;;;;;5.35;1.98;;;;;;;31.42;52.94;94256.94;5615538;23;20105;-87
2022/07/15 17:23:35;;;;;;;2.00;1.50;;;;;;;31.18;52.90;94256.00;4982957;28;20030;-87
2022/07/15 17:26:03;;;;;;;3.10;2.00;;;;;;;30.58;54.82;94248.84;4982529;28;20113;-87
2022/07/15 17:28:29;;;;;;;3.33;1.90;;;;;;;30.54;54.50;94252.75;4982572;28;20029;-88
2022/07/15 17:30:57;;;;;;;4.25;2.00;;;;;;;30.61;55.12;94258.88;4966583;28;20034;-86
2022/07/15 17:33:22;;;;;;;7.55;1.95;;;;;;;30.24;57.14;94259.56;4958494;28;20022;-88
2022/07/15 17:35:50;;;;;;;5.70;1.98;;;;;;;30.26;56.86;94259.94;4963157;28;20030;-87
2022/07/15 17:38:15;;;;;;;2.70;2.10;;;;;;;29.56;59.48;94251.44;4976905;28;20021;-86
2022/07/15 17:40:51;;;;;;;3.45;2.28;;;;;;;29.56;60.55;94250.69;4995407;28;20033;-87
2022/07/15 17:43:16;;;;;;;4.10;2.03;;;;;;;28.86;70.28;94257.41;4978083;28;20034;-87
2022/07/15 17:45:41;;;;;;;3.30;1.90;;;;;;;29.61;60.19;94252.97;4982251;28;20026;-87
2022/07/15 17:48:07;;;;;;;5.05;1.95;;;;;;;29.30;61.81;94253.44;4982246;28;20411;-90
2022/07/15 17:50:33;;;;;;;5.07;1.88;;;;;;;29.22;62.66;94246.53;4982137;28;20034;-90
2022/07/15 17:53:01;;;;;;;7.72;2.03;;;;;;;29.15;61.20;94243.88;4966174;28;20033;-89
2022/07/15 17:55:27;;;;;;;3.10;2.10;;;;;;;29.09;64.36;94248.88;4956905;28;20034;-90
2022/07/15 17:57:52;;;;;;;6.05;2.13;;;;;;;28.59;67.60;94238.94;4946661;28;20351;-89
2022/07/15 18:00:17;;;;;;;5.25;2.40;;;;;;;28.57;67.88;94244.75;4947056;28;20353;-90
2022/07/15 18:02:43;;;;;;;3.90;2.35;;;;;;;28.93;61.10;94246.63;4961981;28;20066;-89
2022/07/15 18:05:09;;;;;;;3.97;1.90;;;;;;;29.13;59.18;94248.88;4979042;28;20027;-91
2022/07/15 18:07:42;;;;;;;2.58;1.80;;;;;;;29.19;57.86;94258.09;4946765;28;20056;-89
2022/07/15 18:10:20;;;;;;;;;;;;;;;;;;;;;
2022/07/15 18:12:59;;;;;;;;;;;;;;;;;;;;;
2022/07/15 18:15:40;;;;;;;;;;;;;;;;;;;;;
2022/07/15 18:18:22;;;;;;;;;;;;;;;;;;;;;
2022/07/15 18:21:07;;;;;;;;;;;;;;;;;;;;;
2022/07/15 18:23:54;;;;;;;6.32;2.10;;;;;;;28.82;57.93;94256.66;4963497;28;20431;-89
2022/07/15 18:26:20;;;;;;;4.38;1.80;;;;;;;28.76;58.47;94258.94;4948955;28;20027;-92
2022/07/15 18:28:45;;;;;;;7.53;2.00;;;;;;;28.55;58.83;94259.75;4946460;28;20166;-90
2022/07/15 18:31:10;;;;;;;3.35;2.17;;;;;;;28.43;59.36;94258.22;4962137;28;20031;-91
2022/07/15 18:33:36;;;;;;;6.25;2.10;;;;;;;28.53;59.05;94259.38;4945814;28;20049;-91
2022/07/15 18:36:02;;;;;;;3.72;2.25;;;;;;;28.36;60.06;94265.13;4962220;28;20123;-90
2022/07/15 18:38:27;;;;;;;3.60;1.98;;;;;;;28.30;61.29;94263.19;4961995;28;20105;-91
2022/07/15 18:41:03;;;;;;;4.25;2.40;;;;;;;28.09;62.16;94262.78;4961770;28;20117;-91
2022/07/15 18:43:35;;;;;;;2.55;2.05;;;;;;;28.12;61.86;94263.16;4961397;28;20050;-90
2022/07/15 18:46:01;;;;;;;2.97;2.33;;;;;;;28.09;62.49;94257.38;4962158;28;20050;-91
2022/07/15 18:48:37;;;;;;;4.72;2.22;;;;;;;28.15;62.56;94265.09;4960044;28;20059;-91
2022/07/15 18:51:11;;;;;;;4.28;2.30;;;;;;;28.02;63.95;94260.09;4973796;28;20447;-91
2022/07/15 18:53:37;;;;;;;5.57;2.28;;;;;;;27.63;66.08;94271.53;4980895;28;20134;-89
2022/07/15 18:56:04;;;;;;;3.22;2.40;;;;;;;27.73;66.14;94278.88;4965221;28;20034;-91
2022/07/15 18:58:30;;;;;;;5.38;2.50;;;;;;;27.69;67.06;94259.25;4965182;28;20069;-90
2022/07/15 19:01:15;;;;;;;10.18;2.50;;;;;;;27.75;66.90;94273.88;4980606;28;20041;-90
2022/07/15 19:04:03;;;;;;;6.10;2.80;;;;;;;27.70;67.39;94268.09;4964625;28;20112;-90
2022/07/15 19:06:29;;;;;;;4.97;2.15;;;;;;;27.66;66.90;94273.44;4985729;28;20053;-89
2022/07/15 19:08:54;;;;;;;4.93;2.22;;;;;;;27.57;67.77;94278.44;4989714;28;20462;-88
2022/07/15 19:11:30;;;;;;;;;;;;;;;;;;;;;
2022/07/15 19:13:56;;;;;;;9.95;2.80;;;;;;;27.55;70.44;94261.91;5001590;28;20022;-88
2022/07/15 19:16:21;;;;;;;4.10;2.50;;;;;;;27.56;69.95;94272.25;4997641;28;20044;-91
2022/07/15 19:18:48;;;;;;;6.32;2.13;;;;;;;27.44;70.80;94273.34;4979657;28;20030;-88
2022/07/15 19:21:16;;;;;;;3.72;2.88;;;;;;;27.35;72.02;94279.09;4977599;28;20399;-91
2022/07/15 19:23:42;;;;;;;6.18;3.45;;;;;;;27.18;73.51;94275.16;4972328;28;20042;-91
2022/07/15 19:26:07;;;;;;;7.63;2.70;;;;;;;27.09;74.96;94282.78;4964305;28;20030;-91
2022/07/15 19:28:33;;;;;;;8.50;3.13;;;;;;;27.15;75.29;94283.19;4964937;28;20034;-92
2022/07/15 19:30:59;;;;;;;6.20;2.72;;;;;;;27.01;76.11;94283.91;4964630;28;20102;-91
2022/07/15 19:33:29;;;;;;;5.43;2.72;;;;;;;26.99;75.87;94288.88;4980253;28;20038;-91
2022/07/15 19:35:55;;;;;;;3.60;2.58;;;;;;;26.91;76.50;94280.75;4965421;28;20065;-91
2022/07/15 19:38:21;;;;;;;7.47;2.40;;;;;;;27.02;74.98;94280.06;4981330;28;20037;-91
2022/07/15 19:40:55;;;;;;;4.43;2.42;;;;;;;26.90;75.35;94300.72;4964806;28;20030;-91
2022/07/15 19:43:22;;;;;;;5.55;2.80;;;;;;;26.92;76.12;94297.69;4980554;28;20097;-92
2022/07/15 19:46:16;;;;;;;;;;;;;;;;;;;;;
2022/07/15 19:48:51;;;;;;;;;;;;;;;;;;;;;
2022/07/15 19:51:20;;;;;;;7.40;2.65;;;;;;;26.64;77.31;94299.00;4978238;28;20027;-92
2022/07/15 19:53:54;;;;;;;6.43;2.88;;;;;;;26.77;74.89;94307.53;4978092;28;20039;-92
2022/07/15 19:56:34;;;;;;;4.80;2.70;;;;;;;26.70;74.92;94305.53;4978786;28;20031;-93
2022/07/15 20:01:47;;;;;;;5.43;2.70;;;;;;;26.60;72.46;94320.44;4981443;28;20088;-89
2022/07/15 20:04:17;;;;;;;4.22;2.65;;;;;;;26.52;72.82;94321.53;4964819;28;20030;-93
2022/07/15 20:06:46;;;;;;;4.30;2.42;;;;;;;26.56;71.83;94325.03;4980485;28;20050;-92
2022/07/15 20:09:13;;;;;;;4.18;2.40;;;;;;;26.39;73.64;94329.84;4980042;28;20099;-92
2022/07/15 20:11:39;;;;;;;6.53;2.50;;;;;;;26.27;74.95;94330.16;4979895;28;20030;-90
2022/07/15 20:14:06;;;;;;;6.70;2.50;;;;;;;26.16;76.55;94327.31;4964380;28;20081;-91
2022/07/15 20:16:37;;;;;;;6.53;2.60;;;;;;;26.16;76.09;94326.56;4997303;28;20351;-92
2022/07/15 20:19:03;;;;;;;5.95;2.70;;;;;;;26.17;74.28;94342.28;4980960;28;20026;-91
2022/07/15 20:21:28;;;;;;;4.53;2.53;;;;;;;26.35;70.27;94337.13;4979554;28;20030;-90
2022/07/15 20:23:54;;;;;;;5.28;2.40;;;;;;;26.29;71.50;94345.88;4963342;28;20030;-87
2022/07/15 20:26:19;;;;;;;10.35;2.75;;;;;;;26.24;71.07;94346.97;4979913;28;20022;-88
2022/07/15 20:28:44;;;;;;;5.28;2.75;;;;;;;26.14;74.03;94347.63;4979930;28;20049;-89
2022/07/15 20:31:10;;;;;;;5.93;2.40;;;;;;;26.17;69.57;94355.69;4963986;28;20424;-89
2022/07/15 20:33:36;;;;;;;8.85;2.47;;;;;;;26.21;69.20;94361.94;4963480;28;20030;-90
2022/07/15 20:36:02;;;;;;;4.55;2.50;;;;;;;26.01;70.76;94368.56;4979406;28;20034;-90
2022/07/15 20:38:27;;;;;;;6.95;2.60;;;;;;;25.93;70.14;94363.13;4979731;28;20030;-90
2022/07/15 20:40:53;;;;;;;5.03;2.95;;;;;;;25.96;69.30;94366.97;4963600;28;20026;-89
2022/07/15 20:43:18;;;;;;;4.85;2.67;;;;;;;26.00;68.92;94370.50;4979437;28;20037;-90
2022/07/15 20:45:43;;;;;;;5.63;2.70;;;;;;;25.98;68.56;94362.81;4979737;28;20052;-88
2022/07/15 20:48:12;;;;;;;6.95;2.45;;;;;;;26.03;69.49;94371.66;4979761;28;20026;-91
2022/07/15 20:50:38;;;;;;;4.07;2.35;;;;;;;25.84;71.07;94368.00;4964211;28;20032;-89
2022/07/15 20:53:04;;;;;;;4.20;2.70;;;;;;;25.86;71.88;94373.78;4979093;28;20325;-89
2022/07/15 20:55:29;;;;;;;4.78;2.67;;;;;;;25.79;73.63;94371.78;4979342;28;20037;-89
2022/07/15 20:57:55;;;;;;;4.95;2.67;;;;;;;25.78;74.98;94378.28;4979603;28;20092;-90
2022/07/15 21:00:20;;;;;;;3.38;2.53;;;;;;;25.80;74.73;94378.69;4979319;28;20036;-89
2022/07/15 21:02:46;;;;;;;4.57;3.03;;;;;;;25.66;75.97;94381.19;4963107;28;20080;-89
2022/07/15 21:05:12;;;;;;;6.32;2.42;;;;;;;25.61;76.85;94384.19;4996951;28;20034;-90
2022/07/15 21:07:40;;;;;;;10.88;2.95;;;;;;;25.66;77.07;94389.25;4982419;28;20026;-88
2022/07/15 21:10:06;;;;;;;8.77;3.10;;;;;;;25.66;77.42;94383.88;4967037;28;20038;-89
2022/07/15 21:12:32;;;;;;;5.45;2.83;;;;;;;25.57;78.46;94392.19;4983351;28;20343;-90
2022/07/15 21:14:57;;;;;;;6.25;3.03;;;;;;;25.54;77.29;94388.34;4971384;28;20435;-89
2022/07/15 21:17:24;;;;;;;7.78;2.90;;;;;;;25.45;79.33;94392.38;4947926;28;20055;-89
2022/07/15 21:19:50;;;;;;;7.18;3.28;;;;;;;25.50;78.54;94390.19;4965759;28;20446;-92
2022/07/15 21:22:16;;;;;;;4.00;3.20;;;;;;;25.59;76.77;94391.84;4966522;28;20100;-90
2022/07/15 21:27:26;;;;;;;7.53;3.33;;;;;;;25.53;76.03;94392.13;4985348;28;20032;-89
2022/07/15 21:29:52;;;;;;;11.00;4.22;;;;;;;25.62;73.82;94393.78;4982862;28;20030;-89
2022/07/15 21:32:17;;;;;;;6.05;4.10;;;;;;;25.56;75.96;94390.66;4966678;28;20387;-90
2022/07/15 21:34:43;;;;;;;15.38;4.38;;;;;;;25.48;75.58;94394.38;4981956;28;20428;-90
2022/07/15 21:37:08;;;;;;;10.10;4.20;;;;;;;25.48;75.50;94389.78;4966138;28;20030;-91
2022/07/15 21:39:34;;;;;;;4.95;3.90;;;;;;;25.37;77.48;94394.97;4982326;28;20493;-88
2022/07/15 21:42:01;;;;;;;5.55;4.85;;;;;;;25.36;73.35;94398.78;4966670;28;20037;-90
2022/07/15 21:44:27;;;;;;;8.48;4.93;;;;;;;25.56;70.09;94398.69;4965812;28;20031;-89
2022/07/15 21:46:53;;;;;;;8.85;5.63;;;;;;;25.49;71.46;94391.31;4982205;28;20361;-89
2022/07/15 21:49:19;;;;;;;9.60;7.03;;;;;;;25.74;67.92;94407.00;4982383;28;20415;-89
2022/07/15 21:51:47;;;;;;;11.77;6.68;;;;;;;25.77;66.83;94402.81;4982240;28;20084;-89
2022/07/15 21:54:15;;;;;;;11.40;6.60;;;;;;;25.13;73.38;94398.84;4965914;28;20350;-90
2022/07/15 21:56:40;;;;;;;12.95;8.20;;;;;;;25.52;68.02;94408.63;4982312;28;20038;-89
2022/07/15 21:59:06;;;;;;;11.35;8.32;;;;;;;25.69;66.12;94410.75;4966148;28;20062;-89
2022/07/15 22:01:38;;;;;;;10.35;7.35;;;;;;;25.11;72.13;94399.19;4966129;28;20041;-90
2022/07/15 22:04:04;;;;;;;9.57;7.97;;;;;;;25.10;72.52;94402.22;4965632;28;20061;-89
2022/07/15 22:06:30;;;;;;;12.73;9.35;;;;;;;24.85;72.87;94400.72;4982234;28;20022;-89
2022/07/15 22:08:56;;;;;;;15.55;9.02;;;;;;;25.10;69.76;94405.69;4981541;28;20159;-88
2022/07/15 22:11:22;;;;;;;10.38;9.13;;;;;;;25.17;69.53;94404.25;4981831;28;20034;-88
2022/07/15 22:13:47;;;;;;;11.43;9.52;;;;;;;25.46;66.23;94405.44;4998750;28;20033;-87
2022/07/15 22:16:13;;;;;;;18.90;10.50;;;;;;;25.31;67.46;94411.72;4981703;28;20034;-89
2022/07/15 22:18:40;;;;;;;13.00;10.48;;;;;;;25.35;67.31;94407.97;4980874;28;20029;-88
2022/07/15 22:21:07;;;;;;;13.13;10.43;;;;;;;25.52;65.06;94408.63;4998852;28;20037;-89
2022/07/15 22:23:32;;;;;;;13.05;10.80;;;;;;;25.28;66.22;94407.88;4981208;28;20121;-89
2022/07/15 22:25:58;;;;;;;12.43;9.75;;;;;;;25.12;67.73;94410.72;4965661;28;20135;-89
2022/07/15 22:28:23;;;;;;;15.40;10.60;;;;;;;25.09;66.63;94408.72;4965598;28;20102;-88
2022/07/15 22:30:49;;;;;;;14.30;10.32;;;;;;;24.95;67.71;94411.97;4981384;28;20033;-89
2022/07/15 22:33:14;;;;;;;12.88;10.23;;;;;;;24.84;68.23;94412.56;4998322;28;20142;-89
2022/07/15 22:35:40;;;;;;;14.70;9.82;;;;;;;24.84;66.90;94407.19;4981243;28;20320;-89
2022/07/15 22:38:05;;;;;;;12.85;9.77;;;;;;;24.92;65.43;94412.69;4981391;28;20037;-89
2022/07/15 22:40:38;;;;;;;11.75;10.10;;;;;;;24.97;64.64;94413.16;4965006;28;20030;-89
2022/07/15 22:43:03;;;;;;;13.88;10.20;;;;;;;24.90;65.38;94407.69;4974976;28;20450;-88
2022/07/15 22:45:31;;;;;;;13.90;10.43;;;;;;;24.79;66.51;94414.75;4981493;28;20034;-88
2022/07/15 22:47:59;;;;;;;13.50;10.23;;;;;;;24.60;68.89;94418.22;4965478;28;20387;-88
2022/07/15 22:50:25;;;;;;;14.32;10.05;;;;;;;24.36;72.87;94418.19;4981107;28;20424;-89
2022/07/15 22:52:52;;;;;;;15.45;10.43;;;;;;;24.18;73.45;94415.22;4980628;28;20423;-89
2022/07/15 22:55:18;;;;;;;11.18;9.60;;;;;;;24.07;74.46;94417.66;4981327;28;20113;-89
2022/07/15 22:57:43;;;;;;;12.68;8.55;;;;;;;24.11;71.51;94420.41;4981091;28;20121;-89
2022/07/15 23:00:09;;;;;;;12.05;8.85;;;;;;;24.13;71.68;94418.94;4998637;28;20041;-89
2022/07/15 23:02:35;;;;;;;11.07;8.82;;;;;;;24.41;67.27;94428.66;4964590;28;20038;-89
2022/07/15 23:05:01;;;;;;;15.13;9.20;;;;;;;24.78;64.33;94424.72;4981268;28;20081;-90
2022/07/15 23:07:27;;;;;;;13.73;8.68;;;;;;;24.89;64.08;94424.88;4980563;28;20522;-89
2022/07/15 23:09:52;;;;;;;16.67;8.95;;;;;;;24.79;63.93;94430.84;4980752;28;20113;-90
2022/07/15 23:12:18;;;;;;;13.30;8.63;;;;;;;24.90;62.05;94423.75;4964591;28;20041;-88
2022/07/15 23:14:43;;;;;;;10.35;8.70;;;;;;;24.40;70.02;94440.47;4980343;28;20332;-89
2022/07/15 23:17:11;;;;;;;12.25;8.95;;;;;;;23.89;74.88;94435.25;4997991;28;20039;-88
2022/07/15 23:19:37;;;;;;;11.55;9.32;;;;;;;23.46;81.18;94445.81;4997977;28;20053;-89
2022/07/15 23:22:03;;;;;;;11.45;7.97;;;;;;;23.34;84.88;94438.66;4980467;28;20117;-89
2022/07/15 23:24:29;;;;;;;14.45;7.10;;;;;;;23.14;89.82;94442.00;4964223;28;20176;-88
2022/07/15 23:26:55;;;;;;;9.82;7.75;;;;;;;22.95;92.15;94440.00;4980757;28;20200;-89
2022/07/15 23:29:20;;;;;;;10.93;8.52;;;;;;;22.87;90.56;94440.97;4964555;28;20416;-89
2022/07/15 23:31:45;;;;;;;12.35;8.52;;;;;;;22.80;90.90;94438.13;4964638;28;20036;-88
2022/07/15 23:34:11;;;;;;;10.75;8.18;;;;;;;22.80;91.81;94438.13;4980023;28;20415;-88
2022/07/15 23:36:36;;;;;;;12.05;8.60;;;;;;;22.62;88.72;94443.03;4980256;28;20431;-89
2022/07/15 23:39:02;;;;;;;10.18;7.72;;;;;;;22.77;87.18;94444.94;4980379;28;20034;-88
2022/07/15 23:41:27;;;;;;;13.73;7.90;;;;;;;22.73;85.09;94449.41;4964417;28;20124;-89
2022/07/15 23:43:53;;;;;;;10.57;8.55;;;;;;;22.84;81.86;94444.34;4979951;28;20034;-89
2022/07/15 23:46:18;;;;;;;10.13;8.15;;;;;;;22.86;82.30;94444.78;4980285;28;20057;-88
2022/07/15 23:48:44;;;;;;;13.35;7.70;;;;;;;22.75;81.71;94441.84;4963942;28;20408;-88
2022/07/15 23:51:09;;;;;;;10.50;7.60;;;;;;;22.67;83.52;94446.22;4964209;28;20331;-88
2022/07/15 23:53:35;;;;;;;11.40;8.23;;;;;;;22.60;83.08;94446.03;4964226;28;20029;-89
2022/07/15 23:56:01;;;;;;;13.65;7.93;;;;;;;22.53;84.36;94448.53;4964251;28;20022;-89
2022/07/15 23:58:26;;;;;;;14.88;7.95;;;;;;;22.55;81.32;94451.63;4980088;28;20066;-89
